Time;durP1;ratioP1;P1;durP2;ratioP2;P2;SDS_P1;SDS_P2;PMS_P1;PMS_P2;Temp;Humidity;BMP_temperature;BMP_pressure;BME280_temperature;BME280_humidity;BME280_pressure;Samples;Min_cycle;Max_cycle;Signal;HPM_P1;HPM_P2
2021/04/11 00:00:00;;;;;;;35.03;26.48;;;;;;;8.36;95.79;100405.50;5053305;28;20071;-73
2021/04/11 00:02:31;;;;;;;34.50;26.05;;;;;;;8.47;95.68;100409.63;5035541;28;20049;-73
2021/04/11 00:04:58;;;;;;;35.65;27.52;;;;;;;8.51;96.24;100410.66;5052708;28;20376;-75
2021/04/11 00:07:25;;;;;;;38.10;27.52;;;;;;;8.30;97.05;100409.47;5052972;28;20492;-71
2021/04/11 00:09:51;;;;;;;39.85;29.85;;;;;;;8.16;98.94;100408.63;5051295;28;20060;-74
2021/04/11 00:12:36;;;;;;;39.45;28.25;;;;;;;7.80;99.26;100413.16;5053106;28;20053;-73
2021/04/11 00:15:05;;;;;;;40.63;29.33;;;;;;;8.05;99.37;100420.91;5035168;28;20053;-75
2021/04/11 00:17:32;;;;;;;36.13;25.55;;;;;;;7.78;97.61;100420.88;5052587;28;20060;-75
2021/04/11 00:19:59;;;;;;;33.75;24.20;;;;;;;7.73;97.36;100415.50;5052640;28;20056;-73
2021/04/11 00:22:26;;;;;;;34.33;25.73;;;;;;;7.67;98.47;100413.97;5018635;28;20408;-73
2021/04/11 00:24:52;;;;;;;34.05;25.80;;;;;;;8.03;98.17;100414.91;5034977;28;20391;-76
2021/04/11 00:27:19;;;;;;;31.27;24.73;;;;;;;8.34;96.79;100410.47;5034233;28;20053;-74
2021/04/11 00:29:49;;;;;;;31.65;24.50;;;;;;;8.49;93.24;100412.91;5053238;28;20068;-75
2021/04/11 00:32:20;;;;;;;29.13;21.95;;;;;;;7.77;94.26;100409.13;5051336;28;20059;-74
2021/04/11 00:34:47;;;;;;;32.97;23.27;;;;;;;7.94;94.41;100403.03;5035418;28;20049;-73
2021/04/11 00:37:17;;;;;;;29.60;21.98;;;;;;;7.93;93.56;100393.19;5052080;28;20064;-74
2021/04/11 00:39:44;;;;;;;28.65;22.27;;;;;;;8.26;92.93;100386.50;5052508;28;20060;-75
2021/04/11 00:42:26;;;;;;;29.05;21.55;;;;;;;8.04;91.10;100391.84;5034182;28;20056;-75
2021/04/11 00:45:29;;;;;;;28.58;22.00;;;;;;;8.12;91.56;100371.13;5034964;28;20041;-73
2021/04/11 00:48:16;;;;;;;27.08;21.40;;;;;;;8.18;91.01;100380.88;5036871;28;20057;-77
2021/04/11 00:50:55;;;;;;;28.17;21.13;;;;;;;8.06;91.67;100386.06;5052774;28;20048;-75
2021/04/11 00:53:25;;;;;;;28.75;20.75;;;;;;;8.23;91.67;100378.84;5052332;28;20041;-74
2021/04/11 00:55:52;;;;;;;27.58;21.27;;;;;;;8.24;90.71;100376.94;5052494;28;20052;-73
2021/04/11 00:58:25;;;;;;;28.25;20.85;;;;;;;8.08;90.62;100364.63;5034237;28;20456;-74
2021/04/11 01:00:53;;;;;;;26.60;20.77;;;;;;;8.34;90.72;100365.75;5051441;28;20080;-75
2021/04/11 01:03:23;;;;;;;25.83;19.98;;;;;;;8.11;90.16;100370.31;5017629;28;20056;-75
2021/04/11 01:05:50;;;;;;;23.88;18.30;;;;;;;8.41;90.37;100364.22;5034521;28;20052;-75
2021/04/11 01:08:24;;;;;;;21.75;17.25;;;;;;;8.36;88.96;100363.53;5034341;28;20053;-73
2021/04/11 01:11:01;;;;;;;21.13;15.90;;;;;;;8.13;88.50;100357.09;5050066;28;20057;-75
2021/04/11 01:13:52;;;;;;;22.85;18.10;;;;;;;7.93;89.74;100358.31;5048361;28;20049;-73
2021/04/11 01:16:20;;;;;;;22.95;17.50;;;;;;;8.15;89.52;100360.38;5050936;28;20113;-75
2021/04/11 01:18:50;;;;;;;23.98;17.35;;;;;;;8.16;89.66;100364.72;5050791;28;20060;-75
2021/04/11 01:21:48;;;;;;;22.48;17.17;;;;;;;8.19;89.42;100372.34;5003006;28;20056;-74
2021/04/11 01:25:08;;;;;;;24.73;18.33;;;;;;;8.24;88.64;100380.50;5051848;28;20072;-74
2021/04/11 01:27:36;;;;;;;25.83;19.27;;;;;;;8.10;88.78;100382.41;5033802;28;20045;-74
2021/04/11 01:30:55;;;;;;;24.10;18.00;;;;;;;7.94;89.77;100376.44;5051910;28;20045;-74
2021/04/11 01:33:35;;;;;;;24.97;19.30;;;;;;;7.78;90.52;100387.97;5034303;28;20368;-74
2021/04/11 01:36:31;;;;;;;25.40;18.63;;;;;;;7.98;91.26;100396.63;5021036;28;20299;-76
2021/04/11 01:39:13;;;;;;;24.17;18.08;;;;;;;7.89;91.10;100409.44;5020926;28;20392;-73
2021/04/11 01:41:42;;;;;;;27.92;19.95;;;;;;;7.76;92.74;100395.69;5050275;28;20060;-74
2021/04/11 01:48:36;;;;;;;31.70;22.48;;;;;;;7.72;93.23;100389.19;5051850;28;20481;-75
2021/04/11 01:51:09;;;;;;;30.92;22.35;;;;;;;7.83;93.22;100383.22;5034220;28;20053;-76
2021/04/11 01:53:43;;;;;;;29.38;21.45;;;;;;;7.92;92.91;100386.88;5015093;28;20357;-74
2021/04/11 01:56:28;;;;;;;29.35;21.63;;;;;;;8.16;92.09;100392.16;5001287;28;20060;-74
2021/04/11 02:03:44;;;;;;;30.15;21.85;;;;;;;7.55;93.35;100386.22;5029240;28;20049;-74
2021/04/11 02:06:13;;;;;;;31.25;22.60;;;;;;;7.60;92.88;100386.13;4996210;28;20052;-74
2021/04/11 02:08:44;;;;;;;;;;;;;;;7.61;93.99;100391.31;4996801;28;20056;-74
2021/04/11 02:11:14;;;;;;;32.70;23.08;;;;;;;7.66;93.00;100391.22;4997883;28;20367;-73
2021/04/11 02:13:43;;;;;;;31.65;22.63;;;;;;;7.54;93.26;100388.16;5013251;28;20053;-75
2021/04/11 02:16:24;;;;;;;29.42;22.73;;;;;;;7.61;93.39;100385.84;5014449;28;20064;-75
2021/04/11 02:19:06;;;;;;;31.70;22.90;;;;;;;7.66;92.17;100382.16;4999988;28;20488;-75
2021/04/11 02:21:35;;;;;;;30.52;21.48;;;;;;;7.72;91.32;100387.25;5033597;28;20045;-75
2021/04/11 02:24:06;;;;;;;31.77;23.60;;;;;;;7.60;92.83;100388.88;5000221;28;20058;-74
2021/04/11 02:26:37;;;;;;;29.65;22.23;;;;;;;7.56;91.52;100382.38;5016583;28;20443;-75
2021/04/11 02:29:20;;;;;;;29.40;22.75;;;;;;;7.69;91.90;100390.59;5016543;28;20175;-74
2021/04/11 02:31:49;;;;;;;30.75;22.92;;;;;;;7.49;92.29;100398.38;5015121;28;20060;-74
2021/04/11 02:34:26;;;;;;;32.22;24.50;;;;;;;7.63;92.73;100405.53;5036594;28;20049;-74
2021/04/11 02:37:18;;;;;;;34.70;23.45;;;;;;;7.75;92.22;100416.00;5054640;28;20053;-72
2021/04/11 02:39:46;;;;;;;35.13;25.45;;;;;;;7.42;93.09;100409.75;5021368;28;20380;-74
2021/04/11 02:42:19;;;;;;;35.28;27.13;;;;;;;7.52;92.58;100406.00;5038059;28;20052;-74
2021/04/11 02:44:48;;;;;;;35.83;26.90;;;;;;;7.25;92.85;100416.88;5021046;28;20048;-74
2021/04/11 02:47:19;;;;;;;39.78;28.30;;;;;;;7.18;93.16;100420.00;5037027;28;20068;-74
2021/04/11 02:49:51;;;;;;;40.35;30.13;;;;;;;6.92;95.00;100424.25;5036409;28;20506;-73
2021/04/11 02:52:32;;;;;;;40.67;30.02;;;;;;;7.29;95.20;100424.19;5051445;28;20057;-75
2021/04/11 02:55:00;;;;;;;42.33;29.85;;;;;;;7.47;93.23;100434.31;5020061;28;20053;-75
2021/04/11 02:57:29;;;;;;;37.42;27.38;;;;;;;7.65;92.06;100433.44;5020815;28;20056;-73
2021/04/11 03:00:00;;;;;;;41.78;28.65;;;;;;;7.37;91.85;100437.22;5037723;28;20061;-74
2021/04/11 03:02:32;;;;;;;38.50;27.95;;;;;;;7.13;93.08;100441.97;5020584;28;20515;-74
2021/04/11 03:05:23;;;;;;;40.55;28.80;;;;;;;6.91;93.78;100439.03;5040232;28;20045;-74
2021/04/11 03:07:59;;;;;;;42.65;29.35;;;;;;;6.84;93.99;100435.84;5036924;28;20064;-75
2021/04/11 03:10:41;;;;;;;42.47;29.30;;;;;;;6.73;94.70;100439.81;5020557;28;20404;-76
2021/04/11 03:13:11;;;;;;;38.55;26.80;;;;;;;7.01;93.18;100449.03;5035666;28;20377;-74
2021/04/11 03:15:39;;;;;;;40.00;26.98;;;;;;;7.17;92.21;100448.50;5035027;28;20372;-74
2021/04/11 03:18:07;;;;;;;37.08;26.48;;;;;;;7.28;91.08;100452.72;5053839;28;20056;-75
2021/04/11 03:20:39;;;;;;;36.17;26.35;;;;;;;7.19;90.24;100450.94;5019524;28;20390;-76
2021/04/11 03:23:25;;;;;;;39.72;28.45;;;;;;;6.93;91.96;100455.97;5038222;28;20049;-76
2021/04/11 03:26:17;;;;;;;38.50;27.05;;;;;;;6.97;91.54;100448.81;5022853;28;20045;-75
2021/04/11 03:28:54;;;;;;;37.63;27.15;;;;;;;7.25;90.45;100444.28;5033896;28;20056;-76
2021/04/11 03:31:34;;;;;;;33.75;24.20;;;;;;;7.16;89.74;100446.06;5036364;28;20071;-75
2021/04/11 03:34:03;;;;;;;32.70;24.42;;;;;;;7.07;89.36;100450.56;5000470;28;20045;-76
2021/04/11 03:36:52;;;;;;;36.17;25.50;;;;;;;6.66;92.57;100442.09;5046356;28;20052;-75
2021/04/11 03:39:19;;;;;;;33.25;24.02;;;;;;;6.90;92.58;100437.41;5019470;28;20044;-77
2021/04/11 03:41:47;;;;;;;31.27;22.60;;;;;;;6.59;91.97;100439.75;5035909;28;20049;-74
2021/04/11 03:44:20;;;;;;;30.10;21.38;;;;;;;6.69;91.66;100458.75;5036136;28;20048;-76
2021/04/11 03:47:00;;;;;;;27.50;20.70;;;;;;;6.73;90.83;100458.97;5019735;28;20044;-76
2021/04/11 03:49:35;;;;;;;28.75;20.48;;;;;;;6.51;90.73;100461.47;5036133;28;20495;-75
2021/04/11 03:52:10;;;;;;;29.35;20.48;;;;;;;6.40;91.78;100465.44;5020249;28;20057;-76
2021/04/11 03:54:40;;;;;;;28.45;20.48;;;;;;;6.58;91.36;100470.97;5019148;28;20128;-75
2021/04/11 03:57:16;;;;;;;29.25;20.38;;;;;;;6.15;92.33;100466.56;5051266;28;20056;-75
2021/04/11 03:59:47;;;;;;;28.13;20.15;;;;;;;6.30;91.49;100474.59;5018588;28;20059;-74
2021/04/11 04:02:16;;;;;;;28.80;19.10;;;;;;;5.89;92.79;100480.78;5019253;28;20040;-74
2021/04/11 04:04:45;;;;;;;27.48;18.75;;;;;;;5.80;93.17;100472.34;5037097;28;20057;-74
2021/04/11 04:07:20;;;;;;;29.55;20.60;;;;;;;5.95;93.01;100488.63;5037209;28;20073;-72
2021/04/11 04:10:04;;;;;;;27.92;19.77;;;;;;;6.02;92.66;100488.28;5055532;28;20410;-76
2021/04/11 04:12:49;;;;;;;30.25;20.52;;;;;;;5.92;91.98;100489.22;5037550;28;20056;-75
2021/04/11 04:19:46;;;;;;;27.67;19.33;;;;;;;6.17;91.75;100501.81;5053874;28;20060;-74
2021/04/11 04:23:03;;;;;;;26.85;19.55;;;;;;;5.84;91.27;100498.00;5035929;28;20064;-75
2021/04/11 04:25:42;;;;;;;29.63;20.40;;;;;;;5.67;92.79;100501.16;5020975;28;20059;-74
2021/04/11 04:28:35;;;;;;;32.05;21.23;;;;;;;5.75;92.01;100500.53;5036098;28;20049;-74
2021/04/11 04:31:04;;;;;;;28.90;19.45;;;;;;;5.78;91.30;100495.59;5052892;28;20388;-74
2021/04/11 04:34:04;;;;;;;28.95;20.52;;;;;;;5.80;91.20;100505.16;5019318;28;20049;-74
2021/04/11 04:37:06;;;;;;;27.48;18.27;;;;;;;5.66;90.98;100518.66;5044910;28;20064;-74
2021/04/11 04:39:53;;;;;;;27.50;18.63;;;;;;;5.68;91.23;100512.91;5052659;28;20499;-75
2021/04/11 04:42:54;;;;;;;;;;;;;;;5.66;91.43;100526.88;5037595;28;20412;-72
2021/04/11 04:45:46;;;;;;;28.45;18.83;;;;;;;5.73;91.17;100521.88;4994592;28;19922;-74
2021/04/11 04:48:24;;;;;;;29.73;18.95;;;;;;;5.65;90.72;100519.75;5010507;28;20097;-74
2021/04/11 04:51:02;;;;;;;27.85;17.42;;;;;;;5.90;90.65;100524.22;4994687;28;20038;-75
2021/04/11 04:53:53;;;;;;;25.30;16.02;;;;;;;5.73;91.14;100532.00;5010217;28;20053;-72
2021/04/11 04:56:32;;;;;;;22.70;15.23;;;;;;;5.49;92.52;100525.63;4990273;28;20058;-72
2021/04/11 04:59:15;;;;;;;21.83;15.50;;;;;;;5.37;93.29;100545.09;4974286;28;20053;-72
2021/04/11 05:06:26;;;;;;;19.38;12.73;;;;;;;5.23;93.33;100544.09;4990732;28;20042;-74
2021/04/11 05:09:13;;;;;;;16.77;11.35;;;;;;;5.36;92.61;100554.38;4975549;28;20065;-73
2021/04/11 05:11:55;;;;;;;17.83;11.23;;;;;;;5.15;91.51;100554.78;4974657;28;20046;-74
2021/04/11 05:14:34;;;;;;;15.70;10.57;;;;;;;5.38;90.89;100551.38;4990503;28;20050;-74
2021/04/11 05:17:08;;;;;;;13.70;9.20;;;;;;;5.24;88.94;100564.84;4990339;28;20055;-74
2021/04/11 05:19:41;;;;;;;11.18;7.68;;;;;;;5.24;88.20;100566.75;4991003;28;20058;-73
2021/04/11 05:22:24;;;;;;;11.98;7.93;;;;;;;5.62;87.73;100574.16;4967292;28;20046;-76
2021/04/11 05:25:14;;;;;;;11.10;7.30;;;;;;;5.04;86.63;100575.06;4971607;28;20057;-76
2021/04/11 05:27:54;;;;;;;11.77;8.02;;;;;;;5.19;87.45;100570.34;4970981;28;20475;-73
2021/04/11 05:30:31;;;;;;;12.00;7.90;;;;;;;5.24;87.19;100596.78;4955520;28;20074;-75
2021/04/11 05:32:58;;;;;;;12.73;7.85;;;;;;;5.44;86.70;100591.22;4990159;28;20049;-75
2021/04/11 05:35:25;;;;;;;11.63;8.02;;;;;;;5.57;87.07;100585.09;5032559;28;20389;-75
2021/04/11 05:38:15;;;;;;;11.40;7.97;;;;;;;5.61;85.01;100597.13;4998221;28;20053;-72
2021/04/11 05:41:14;;;;;;;11.82;7.70;;;;;;;5.55;85.61;100601.78;5032492;28;20428;-74
2021/04/11 05:44:06;;;;;;;12.27;8.07;;;;;;;5.42;84.64;100615.25;5014982;28;20060;-74
2021/04/11 05:46:40;;;;;;;11.73;8.32;;;;;;;5.50;85.81;100615.47;5032960;28;20045;-74
2021/04/11 05:49:48;;;;;;;10.88;7.22;;;;;;;5.55;83.99;100617.34;4952004;28;20550;-73
2021/04/11 05:52:21;;;;;;;12.30;8.15;;;;;;;5.05;85.26;100621.19;4955826;29;20067;-74
2021/04/11 05:54:50;;;;;;;10.85;7.85;;;;;;;5.07;86.15;100648.19;4939234;29;20051;-74
2021/04/11 05:57:24;;;;;;;12.27;7.72;;;;;;;4.87;85.86;100634.59;4955872;28;20058;-74
2021/04/11 06:00:00;;;;;;;11.52;8.32;;;;;;;4.99;85.80;100625.00;4974837;28;20051;-74
2021/04/11 06:06:42;;;;;;;12.57;7.70;;;;;;;5.22;85.10;100629.00;4993370;28;20053;-74
2021/04/11 06:09:27;;;;;;;11.25;7.88;;;;;;;5.01;85.92;100644.66;5036984;28;20057;-70
2021/04/11 06:12:11;;;;;;;;;;;;;;;5.07;86.18;100635.38;5055442;28;20534;-70
2021/04/11 06:14:54;;;;;;;10.88;7.57;;;;;;;5.13;84.68;100650.63;5036031;28;20267;-75
2021/04/11 06:22:10;;;;;;;12.40;8.15;;;;;;;5.36;83.38;100646.41;5055092;28;20048;-71
2021/04/11 06:25:12;;;;;;;12.93;8.45;;;;;;;5.23;84.35;100652.50;5037524;28;20403;-74
2021/04/11 06:27:58;;;;;;;13.02;8.48;;;;;;;5.20;84.84;100647.56;5037840;28;20052;-73
2021/04/11 06:30:31;;;;;;;16.17;8.65;;;;;;;5.15;85.19;100651.16;5038317;28;20060;-73
2021/04/11 06:33:07;;;;;;;14.75;9.10;;;;;;;5.25;87.15;100662.03;5053962;28;20045;-73
2021/04/11 06:35:44;;;;;;;14.80;10.07;;;;;;;5.02;86.75;100648.22;5054417;28;20064;-73
2021/04/11 06:38:15;;;;;;;15.30;10.10;;;;;;;5.20;86.00;100640.22;5019758;28;20041;-71
2021/04/11 06:41:03;;;;;;;14.35;10.15;;;;;;;5.26;86.04;100641.84;5037413;28;20506;-74
2021/04/11 06:43:45;;;;;;;13.35;10.40;;;;;;;5.26;85.60;100652.75;5054519;28;20498;-73
2021/04/11 06:46:40;;;;;;;13.60;9.55;;;;;;;5.34;85.80;100665.00;5054875;28;20041;-73
2021/04/11 06:49:13;;;;;;;13.88;9.20;;;;;;;5.52;85.12;100661.63;5036430;28;20053;-72
2021/04/11 06:51:53;;;;;;;13.32;9.30;;;;;;;5.53;83.95;100677.75;5053408;28;20071;-72
2021/04/11 06:54:38;;;;;;;13.55;9.25;;;;;;;5.33;84.12;100656.00;5021108;28;20060;-74
2021/04/11 06:57:16;;;;;;;13.73;9.23;;;;;;;5.68;84.03;100658.53;5053766;28;20048;-72
2021/04/11 07:00:28;;;;;;;13.32;9.15;;;;;;;5.40;83.26;100655.69;5037580;28;20045;-73
2021/04/11 07:07:21;;;;;;;11.80;8.52;;;;;;;5.41;83.05;100682.72;5054386;28;20060;-73
2021/04/11 07:10:06;;;;;;;12.90;7.80;;;;;;;5.43;82.55;100685.16;5036747;28;20063;-74
2021/04/11 07:12:39;;;;;;;11.00;7.50;;;;;;;5.42;81.64;100692.53;5054306;28;20060;-72
2021/04/11 07:15:14;;;;;;;11.73;8.13;;;;;;;5.30;81.25;100680.31;5054003;28;20049;-72
2021/04/11 07:22:47;;;;;;;11.45;8.55;;;;;;;5.20;81.86;100685.81;5055317;28;20048;-71
2021/04/11 07:25:29;;;;;;;12.00;7.90;;;;;;;5.37;82.10;100675.38;5058123;28;20391;-73
2021/04/11 07:28:07;;;;;;;11.73;7.95;;;;;;;5.59;81.50;100703.94;5054657;28;20053;-76
2021/04/11 07:30:42;;;;;;;11.65;7.47;;;;;;;5.46;80.26;100699.09;5036151;28;20085;-73
2021/04/11 07:33:42;;;;;;;10.05;7.55;;;;;;;5.38;81.33;100715.25;5038515;28;20045;-73
2021/04/11 07:36:25;;;;;;;10.90;7.50;;;;;;;5.34;81.33;100714.16;5054464;28;20053;-73
2021/04/11 07:39:21;;;;;;;12.95;7.80;;;;;;;5.21;82.63;100712.81;5021076;28;20049;-73
2021/04/11 07:42:04;;;;;;;11.52;7.85;;;;;;;5.42;81.74;100727.25;5036068;28;20060;-74
2021/04/11 07:44:59;;;;;;;12.20;6.95;;;;;;;5.25;81.14;100708.44;5046859;28;20063;-73
2021/04/11 07:47:26;;;;;;;10.20;7.63;;;;;;;5.23;82.21;100713.38;5035653;28;20053;-72
2021/04/11 07:50:08;;;;;;;14.30;7.97;;;;;;;5.28;82.08;100713.34;5053562;28;20128;-73
2021/04/11 07:52:52;;;;;;;11.15;7.65;;;;;;;5.37;82.28;100721.81;5035616;28;20415;-74
2021/04/11 07:55:39;;;;;;;13.98;6.95;;;;;;;4.97;82.48;100735.56;5052983;28;20049;-72
2021/04/11 07:58:27;;;;;;;10.60;7.57;;;;;;;5.16;81.88;100739.34;5053837;28;20049;-72
2021/04/11 08:00:54;;;;;;;12.10;7.10;;;;;;;5.27;81.49;100746.41;5051750;28;20045;-74
2021/04/11 08:03:25;;;;;;;11.57;6.15;;;;;;;10.92;80.59;100726.69;5053432;28;20045;-54
2021/04/11 08:06:06;;;;;;;6.40;3.90;;;;;;;17.26;50.45;100714.53;5052930;28;20060;-52
2021/04/11 08:08:51;;;;;;;9.68;6.03;;;;;;;8.31;62.77;100743.13;5002611;28;20049;-73
2021/04/11 08:11:34;;;;;;;9.70;7.00;;;;;;;5.97;73.84;100754.31;5035671;28;20057;-75
2021/04/11 08:14:22;;;;;;;10.18;7.05;;;;;;;5.90;75.94;100766.66;5052711;28;20068;-73
2021/04/11 08:17:11;;;;;;;13.75;7.88;;;;;;;5.80;76.10;100772.97;5035192;28;20059;-73
2021/04/11 08:24:29;;;;;;;10.10;6.95;;;;;;;5.44;76.66;100782.41;5035203;28;20056;-76
2021/04/11 08:26:58;;;;;;;9.70;6.57;;;;;;;5.50;78.02;100775.81;5053660;28;20056;-76
2021/04/11 08:29:42;;;;;;;10.02;7.43;;;;;;;5.28;77.05;100787.06;5052945;28;20049;-71
2021/04/11 08:32:18;;;;;;;11.85;7.32;;;;;;;5.19;78.11;100790.66;5053146;28;20052;-73
2021/04/11 08:39:42;;;;;;;10.15;6.50;;;;;;;5.35;76.97;100817.66;5052786;28;20057;-73
2021/04/11 08:42:22;;;;;;;10.90;7.20;;;;;;;5.46;76.94;100805.63;5052467;28;20053;-71
2021/04/11 08:45:20;;;;;;;10.50;7.10;;;;;;;5.43;75.84;100803.44;5034703;28;20052;-72
2021/04/11 08:48:20;;;;;;;11.90;6.82;;;;;;;5.33;76.89;100829.97;5034510;28;20056;-72
2021/04/11 08:55:00;;;;;;;13.77;7.32;;;;;;;5.53;76.43;100838.09;5049881;28;20049;-72
2021/04/11 08:57:46;;;;;;;12.85;7.20;;;;;;;5.79;75.67;100844.31;5034645;28;20049;-71
2021/04/11 09:00:34;;;;;;;13.88;8.23;;;;;;;5.74;74.88;100859.63;5051994;28;20057;-71
2021/04/11 09:03:07;;;;;;;14.38;8.70;;;;;;;5.40;75.41;100861.38;5034654;28;20468;-72
2021/04/11 09:10:12;;;;;;;12.15;7.93;;;;;;;5.31;75.65;100865.75;5051415;28;20373;-71
2021/04/11 09:12:57;;;;;;;14.25;9.05;;;;;;;5.42;74.70;100864.63;5029984;28;20061;-72
2021/04/11 09:15:45;;;;;;;13.45;8.05;;;;;;;5.67;74.46;100853.63;5052354;28;20064;-69
2021/04/11 09:18:34;;;;;;;12.52;8.48;;;;;;;5.65;73.31;100871.41;5035429;28;20052;-72
2021/04/11 09:21:15;;;;;;;12.95;8.48;;;;;;;5.55;73.83;100874.16;5017762;28;20403;-72
2021/04/11 09:24:10;;;;;;;12.85;7.65;;;;;;;5.69;72.76;100881.50;5033813;28;20049;-72
2021/04/11 09:27:07;;;;;;;10.68;7.53;;;;;;;5.52;73.10;100888.38;5033743;28;20414;-72
2021/04/11 09:29:58;;;;;;;11.87;7.87;;;;;;;5.64;72.78;100888.91;5037516;28;20072;-72
2021/04/11 09:32:45;;;;;;;12.40;7.95;;;;;;;5.72;71.54;100889.16;5054707;28;20299;-72
2021/04/11 09:35:22;;;;;;;14.68;7.03;;;;;;;5.62;70.83;100912.94;5036502;28;20056;-71
2021/04/11 09:37:58;;;;;;;11.13;6.80;;;;;;;5.75;70.26;100904.19;5056085;28;20372;-73
2021/04/11 09:40:35;;;;;;;11.32;7.55;;;;;;;5.95;69.84;100900.59;5036650;28;20052;-71
2021/04/11 09:43:28;;;;;;;10.73;7.35;;;;;;;6.01;69.04;100915.88;5052236;28;20501;-73
2021/04/11 09:46:13;;;;;;;12.35;7.07;;;;;;;6.42;68.94;100918.19;5057013;28;20052;-72
2021/04/11 09:49:11;;;;;;;12.18;7.93;;;;;;;6.21;67.70;100922.09;5049095;28;20056;-73
2021/04/11 09:56:27;;;;;;;13.75;7.65;;;;;;;5.99;68.78;100951.72;5021929;28;20053;-71
2021/04/11 09:59:18;;;;;;;11.52;7.18;;;;;;;6.00;69.13;100950.59;5056246;28;20056;-72
2021/04/11 10:02:40;;;;;;;12.85;7.80;;;;;;;5.89;69.68;100932.59;5054964;28;20065;-74
2021/04/11 10:05:26;;;;;;;12.43;8.25;;;;;;;6.17;69.60;100942.88;5056266;28;20057;-72
2021/04/11 10:12:35;;;;;;;13.45;7.90;;;;;;;6.02;70.00;100959.34;5056081;28;20052;-71
2021/04/11 10:15:15;;;;;;;11.95;7.82;;;;;;;6.22;69.97;100951.09;5056535;28;20048;-71
2021/04/11 10:18:03;;;;;;;11.55;6.80;;;;;;;6.13;70.36;100960.97;5055524;28;20056;-72
2021/04/11 10:21:13;;;;;;;13.57;7.32;;;;;;;6.25;70.27;100952.44;5038587;28;20044;-70
2021/04/11 10:28:25;;;;;;;13.07;7.20;;;;;;;5.85;72.06;100972.53;5055071;28;20040;-72
2021/04/11 10:31:37;;;;;;;12.20;6.75;;;;;;;6.00;72.22;100968.94;4997630;28;20057;-72
2021/04/11 10:34:49;;;;;;;13.05;6.75;;;;;;;5.99;71.63;100967.28;4996225;28;20505;-70
2021/04/11 10:42:29;;;;;;;13.57;7.15;;;;;;;6.20;70.52;100979.81;4974396;28;20042;-72
2021/04/11 10:45:24;;;;;;;12.95;7.18;;;;;;;6.15;70.65;100977.09;4960149;28;20046;-69
2021/04/11 10:47:59;;;;;;;14.07;8.23;;;;;;;6.37;70.09;100986.59;4973846;28;20054;-72
2021/04/11 10:50:54;;;;;;;14.80;8.05;;;;;;;6.13;70.43;100991.06;4955940;28;20062;-72
2021/04/11 10:57:49;;;;;;;14.32;6.72;;;;;;;6.21;69.68;101011.53;4973959;28;20365;-70
2021/04/11 11:00:23;;;;;;;13.73;6.90;;;;;;;6.06;69.10;101025.25;4973040;28;20506;-71
2021/04/11 11:02:58;;;;;;;16.23;7.15;;;;;;;5.91;70.61;101015.13;4958292;28;20062;-72
2021/04/11 11:05:36;;;;;;;12.00;6.72;;;;;;;6.08;70.05;101012.13;4976711;28;20051;-71
2021/04/11 11:12:53;;;;;;;16.35;8.35;;;;;;;5.92;70.79;101015.97;5010129;28;20049;-69
2021/04/11 11:15:31;;;;;;;15.48;6.78;;;;;;;5.90;70.86;101026.34;5029605;28;20504;-68
2021/04/11 11:18:15;;;;;;;11.50;6.85;;;;;;;5.99;71.38;101030.19;5054168;28;20060;-76
2021/04/11 11:21:10;;;;;;;14.52;6.80;;;;;;;6.11;70.84;101028.78;5054674;28;20053;-70
2021/04/11 11:24:04;;;;;;;13.95;6.65;;;;;;;6.21;70.39;101047.09;5036193;28;20068;-71
2021/04/11 11:26:37;;;;;;;14.10;6.13;;;;;;;6.20;69.94;101045.47;5020302;28;20052;-72
2021/04/11 11:29:32;;;;;;;12.90;5.65;;;;;;;6.09;69.98;101052.84;5053447;28;20049;-70
2021/04/11 11:32:21;;;;;;;11.63;5.22;;;;;;;6.10;70.47;101054.47;5053726;28;20488;-72
2021/04/11 11:35:11;;;;;;;12.27;5.35;;;;;;;5.96;70.25;101055.34;5036204;28;20148;-69
2021/04/11 11:42:22;;;;;;;14.18;5.25;;;;;;;5.98;70.57;101070.34;5053083;28;20045;-73
2021/04/11 11:44:57;;;;;;;11.88;5.53;;;;;;;5.80;70.16;101070.06;5053973;28;20376;-73
2021/04/11 11:47:30;;;;;;;10.18;5.05;;;;;;;6.28;68.16;101064.03;5053409;28;20048;-71
2021/04/11 11:50:24;;;;;;;12.48;4.82;;;;;;;6.29;66.24;101066.50;5037701;28;20403;-70
2021/04/11 11:57:57;;;;;;;10.95;4.72;;;;;;;6.70;64.29;101061.72;5049582;28;20510;-69
2021/04/11 12:00:37;;;;;;;11.57;4.50;;;;;;;6.61;63.61;101069.69;5017031;28;20194;-69
2021/04/11 12:03:29;;;;;;;10.73;4.13;;;;;;;6.88;62.55;101066.59;5000102;28;20049;-71
2021/04/11 12:06:16;;;;;;;9.10;4.35;;;;;;;7.01;62.03;101057.75;5018012;28;20045;-70
2021/04/11 12:09:00;;;;;;;11.98;4.32;;;;;;;7.16;61.33;101084.25;5014187;28;20346;-72
2021/04/11 12:11:48;;;;;;;9.00;3.80;;;;;;;7.36;60.94;101076.75;5015412;28;20052;-70
2021/04/11 12:14:37;;;;;;;11.48;4.40;;;;;;;7.47;60.20;101088.47;5032736;28;20060;-71
2021/04/11 12:17:32;;;;;;;6.53;3.38;;;;;;;7.24;59.24;101084.47;5032477;28;20060;-72
2021/04/11 12:20:26;;;;;;;8.75;4.05;;;;;;;7.39;59.31;101084.38;5011254;28;20060;-73
2021/04/11 12:23:23;;;;;;;9.48;3.88;;;;;;;7.25;59.72;101096.28;5032605;28;20072;-72
2021/04/11 12:26:13;;;;;;;8.77;3.22;;;;;;;7.23;60.08;101090.25;5031611;28;20065;-70
2021/04/11 12:28:41;;;;;;;8.52;3.20;;;;;;;7.17;60.30;101091.34;5014897;28;20060;-70
2021/04/11 12:31:15;;;;;;;8.15;3.03;;;;;;;7.45;59.96;101098.88;5014865;28;20369;-69
2021/04/11 12:34:06;;;;;;;10.43;3.78;;;;;;;7.18;60.51;101114.94;5015510;28;20061;-69
2021/04/11 12:36:42;;;;;;;8.00;3.15;;;;;;;7.29;59.09;101106.38;5031334;28;20057;-70
2021/04/11 12:44:01;;;;;;;10.07;3.30;;;;;;;7.30;59.49;101109.94;5031515;28;20404;-69
2021/04/11 12:47:20;;;;;;;5.80;2.67;;;;;;;7.06;59.79;101126.19;4970996;28;20514;-70
2021/04/11 12:50:03;;;;;;;9.68;3.15;;;;;;;7.06;60.00;101128.94;5030337;28;20053;-69
2021/04/11 12:52:35;;;;;;;8.20;3.50;;;;;;;7.34;60.36;101127.47;5015104;28;20512;-71
2021/04/11 12:55:21;;;;;;;9.75;2.92;;;;;;;7.28;58.47;101170.50;5014531;28;20412;-71
2021/04/11 12:58:10;;;;;;;4.97;2.17;;;;;;;6.96;59.24;101144.63;5004007;28;20046;-72
2021/04/11 13:00:44;;;;;;;6.22;2.22;;;;;;;7.04;58.67;101153.06;5034403;28;20475;-69
2021/04/11 13:03:18;;;;;;;9.27;2.55;;;;;;;7.15;57.95;101154.66;5035231;28;20052;-70
2021/04/11 13:05:52;;;;;;;9.05;3.38;;;;;;;7.15;57.31;101151.91;5049486;28;20404;-70
2021/04/11 13:08:28;;;;;;;9.40;2.25;;;;;;;7.10;58.01;101165.63;5034223;28;20056;-69
2021/04/11 13:10:56;;;;;;;8.32;2.40;;;;;;;7.22;57.71;101179.81;5051869;28;20045;-68
2021/04/11 13:13:39;;;;;;;10.30;2.72;;;;;;;7.29;57.23;101168.56;5051363;28;20045;-70
2021/04/11 13:16:18;;;;;;;7.28;2.50;;;;;;;7.34;57.54;101166.63;5051113;28;20060;-71
2021/04/11 13:18:52;;;;;;;8.77;2.28;;;;;;;7.55;56.71;101162.69;5035472;28;20045;-71
2021/04/11 13:21:38;;;;;;;8.80;2.42;;;;;;;7.40;56.72;101176.47;5052498;28;20052;-72
2021/04/11 13:24:23;;;;;;;8.23;2.50;;;;;;;7.42;56.90;101170.72;5034881;28;20060;-73
2021/04/11 13:27:30;;;;;;;6.38;2.25;;;;;;;7.39;56.10;101202.22;5032227;28;20056;-69
2021/04/11 13:30:21;;;;;;;6.18;2.15;;;;;;;7.11;56.65;101194.69;5003416;28;20151;-73
2021/04/11 13:33:09;;;;;;;8.65;2.65;;;;;;;7.34;56.89;101187.75;5035204;28;20060;-70
2021/04/11 13:35:43;;;;;;;5.53;2.28;;;;;;;7.31;56.66;101196.50;5052759;28;20376;-75
2021/04/11 13:38:20;;;;;;;8.75;2.53;;;;;;;7.42;57.05;101190.72;5052117;28;20062;-73
2021/04/11 13:45:53;;;;;;;12.13;2.70;;;;;;;7.35;57.65;101194.84;5052269;28;20048;-72
2021/04/11 13:48:44;;;;;;;11.23;2.92;;;;;;;7.56;57.06;101194.50;5010193;28;20448;-71
2021/04/11 13:51:31;;;;;;;8.23;2.88;;;;;;;7.52;57.35;101195.31;4995729;28;20046;-71
2021/04/11 13:54:17;;;;;;;9.25;2.83;;;;;;;7.48;58.08;101202.47;4995326;28;20057;-71
2021/04/11 13:57:24;;;;;;;8.80;2.70;;;;;;;7.40;57.80;101203.88;4996081;28;20058;-71
2021/04/11 14:00:07;;;;;;;7.80;2.33;;;;;;;7.22;58.46;101211.91;5010943;28;20065;-69
2021/04/11 14:03:26;;;;;;;8.50;2.80;;;;;;;7.43;58.15;101202.47;5017188;28;20061;-70
2021/04/11 14:06:03;;;;;;;5.50;2.25;;;;;;;7.55;58.01;101216.69;4952114;29;20088;-71
2021/04/11 14:08:43;;;;;;;8.73;3.13;;;;;;;7.47;58.29;101220.00;4934986;29;20557;-72